createdAt,value
2019-03-25T00:00:13.966Z,0.00
2019-03-25T00:01:13.959Z,0.00
2019-03-25T00:02:13.953Z,0.00
2019-03-25T00:03:13.947Z,0.00
2019-03-25T00:04:13.941Z,0.00
2019-03-25T00:05:13.937Z,0.00
2019-03-25T00:06:13.927Z,0.00
2019-03-25T00:07:13.917Z,0.00
2019-03-25T00:08:13.911Z,0.00
2019-03-25T00:09:13.906Z,0.00
2019-03-25T00:10:13.899Z,0.00
2019-03-25T00:11:13.895Z,0.00
2019-03-25T00:12:13.888Z,0.00
2019-03-25T00:13:13.878Z,0.00
2019-03-25T00:14:13.875Z,0.00
2019-03-25T00:15:13.869Z,0.00
2019-03-25T00:16:13.863Z,0.00
2019-03-25T00:17:13.858Z,0.00
2019-03-25T00:18:13.848Z,0.00
2019-03-25T00:19:13.843Z,0.00
2019-03-25T00:20:13.835Z,0.00
2019-03-25T00:21:13.831Z,0.00
2019-03-25T00:22:13.821Z,0.00
2019-03-25T00:23:13.817Z,0.00
2019-03-25T00:24:13.810Z,0.00
2019-03-25T00:25:13.801Z,0.00
2019-03-25T00:26:13.797Z,0.00
2019-03-25T00:27:13.790Z,0.00
2019-03-25T00:28:14.003Z,0.00
2019-03-25T00:29:13.778Z,0.00
2019-03-25T00:30:13.769Z,0.00
2019-03-25T00:31:13.764Z,0.00
2019-03-25T00:32:13.757Z,0.00
2019-03-25T00:33:13.750Z,0.00
2019-03-25T00:34:13.743Z,0.00
2019-03-25T00:35:13.737Z,0.00
2019-03-25T00:36:13.736Z,0.00
2019-03-25T00:37:13.723Z,0.00
2019-03-25T00:38:13.715Z,0.00
2019-03-25T00:39:13.706Z,0.00
2019-03-25T00:40:13.701Z,0.00
2019-03-25T00:41:13.696Z,0.00
2019-03-25T00:42:13.687Z,0.00
2019-03-25T00:43:13.684Z,0.00
2019-03-25T00:44:13.677Z,0.00
2019-03-25T00:45:13.666Z,0.00
2019-03-25T00:46:13.685Z,0.00
2019-03-25T00:47:13.679Z,0.00
2019-03-25T00:48:13.672Z,0.00
2019-03-25T00:49:13.669Z,0.00
2019-03-25T00:50:13.661Z,0.00
2019-03-25T00:51:13.653Z,0.00
2019-03-25T00:52:13.644Z,0.00
2019-03-25T00:53:13.639Z,0.00
2019-03-25T00:54:13.629Z,0.00
2019-03-25T00:55:13.625Z,0.00
2019-03-25T00:56:13.619Z,0.00
2019-03-25T00:57:13.613Z,0.00
2019-03-25T00:58:13.607Z,0.00
2019-03-25T00:59:13.598Z,0.00
2019-03-25T01:00:13.594Z,0.00
2019-03-25T01:01:13.584Z,0.00
2019-03-25T01:02:13.579Z,0.00
2019-03-25T01:03:13.574Z,0.00
2019-03-25T01:04:13.567Z,0.00
2019-03-25T01:05:13.558Z,0.00
2019-03-25T01:06:13.550Z,0.00
2019-03-25T01:07:13.545Z,0.00
2019-03-25T01:08:13.538Z,0.00
2019-03-25T01:09:13.532Z,0.00
2019-03-25T01:10:13.528Z,0.00
2019-03-25T01:11:13.518Z,0.00
2019-03-25T01:12:13.510Z,0.00
2019-03-25T01:13:13.504Z,0.00
2019-03-25T01:14:13.498Z,0.00
2019-03-25T01:15:13.490Z,0.00
2019-03-25T01:16:13.485Z,0.00
2019-03-25T01:17:13.481Z,0.00
2019-03-25T01:18:17.030Z,0.00
2019-03-25T01:19:13.462Z,0.00
2019-03-25T01:20:13.476Z,0.00
2019-03-25T01:21:13.450Z,0.00
2019-03-25T01:22:13.440Z,0.00
2019-03-25T01:23:13.432Z,0.00
2019-03-25T01:24:13.430Z,0.00
2019-03-25T01:25:13.419Z,0.00
2019-03-25T01:26:13.413Z,0.00
2019-03-25T01:27:13.429Z,0.00
2019-03-25T01:28:13.422Z,0.00
2019-03-25T01:29:13.411Z,0.00
2019-03-25T01:30:13.410Z,0.00
2019-03-25T01:31:13.400Z,0.00
2019-03-25T01:32:13.397Z,0.00
2019-03-25T01:33:13.388Z,0.00
2019-03-25T01:34:13.379Z,0.00
2019-03-25T01:35:13.376Z,0.00
2019-03-25T01:36:13.366Z,0.00
2019-03-25T01:37:13.360Z,0.00
2019-03-25T01:38:13.353Z,0.00
2019-03-25T01:39:13.344Z,0.00
2019-03-25T01:40:13.336Z,0.00
2019-03-25T01:41:13.336Z,0.00
2019-03-25T01:42:13.326Z,0.00
2019-03-25T01:43:13.340Z,0.00
2019-03-25T01:44:13.338Z,0.00
2019-03-25T01:45:13.330Z,0.00
2019-03-25T01:46:13.327Z,0.00
2019-03-25T01:47:13.318Z,0.00
2019-03-25T01:48:13.311Z,0.00
2019-03-25T01:49:13.304Z,0.00
2019-03-25T01:50:13.298Z,0.00
2019-03-25T01:51:13.288Z,0.00
2019-03-25T01:52:13.283Z,0.00
2019-03-25T01:53:13.279Z,0.00
2019-03-25T01:54:13.273Z,0.00
2019-03-25T01:55:13.892Z,0.00
2019-03-25T01:56:13.255Z,0.00
2019-03-25T01:57:13.249Z,0.00
2019-03-25T01:58:13.238Z,0.00
2019-03-25T01:59:13.236Z,0.00
2019-03-25T02:00:13.228Z,0.00
2019-03-25T02:01:13.220Z,0.00
2019-03-25T02:02:13.214Z,0.00
2019-03-25T02:03:13.214Z,0.00
2019-03-25T02:04:13.202Z,0.00
2019-03-25T02:05:13.195Z,0.00
2019-03-25T02:06:13.190Z,0.00
2019-03-25T02:07:13.181Z,0.00
2019-03-25T02:08:13.177Z,0.00
2019-03-25T02:09:13.170Z,0.00
2019-03-25T02:10:13.165Z,0.00
2019-03-25T02:11:13.157Z,0.00
2019-03-25T02:12:13.151Z,0.00
2019-03-25T02:13:13.144Z,0.00
2019-03-25T02:14:13.138Z,0.00
2019-03-25T02:15:13.129Z,0.00
2019-03-25T02:16:13.121Z,0.00
2019-03-25T02:17:13.119Z,0.00
2019-03-25T02:18:13.109Z,0.00
2019-03-25T02:19:13.102Z,0.00
2019-03-25T02:20:13.099Z,0.00
2019-03-25T02:21:13.091Z,0.00
2019-03-25T02:22:13.088Z,0.00
2019-03-25T02:23:13.202Z,0.00
2019-03-25T02:24:13.094Z,0.00
2019-03-25T02:25:24.541Z,0.00
2019-03-25T02:27:40.836Z,0.00
2019-03-25T02:28:40.826Z,0.00
2019-03-25T02:29:40.820Z,0.00
2019-03-25T02:30:41.022Z,0.00
2019-03-25T02:31:40.812Z,0.00
2019-03-25T02:32:40.806Z,0.00
2019-03-25T02:33:40.833Z,0.00
2019-03-25T02:35:40.829Z,0.00
2019-03-25T02:36:40.824Z,0.00
2019-03-25T02:37:40.814Z,0.00
2019-03-25T02:38:40.808Z,0.00
2019-03-25T02:39:40.806Z,0.00
2019-03-25T02:40:40.796Z,0.00
2019-03-25T02:41:40.790Z,0.00
2019-03-25T02:42:40.781Z,0.00
2019-03-25T02:43:40.776Z,0.00
2019-03-25T02:44:40.774Z,0.00
2019-03-25T02:45:40.769Z,0.00
2019-03-25T02:46:40.762Z,0.00
2019-03-25T02:48:08.477Z,0.00
2019-03-25T02:49:08.482Z,0.00
2019-03-25T02:50:08.479Z,0.00
2019-03-25T02:51:08.462Z,0.00
2019-03-25T02:52:08.457Z,0.00
2019-03-25T02:53:08.462Z,0.00
2019-03-25T02:54:08.443Z,0.00
2019-03-25T02:55:08.432Z,0.00
2019-03-25T02:56:08.427Z,0.00
2019-03-25T02:57:08.420Z,0.00
2019-03-25T02:58:08.414Z,0.00
2019-03-25T02:59:08.405Z,0.00
2019-03-25T03:00:08.399Z,0.00
2019-03-25T03:01:08.399Z,0.00
2019-03-25T03:02:08.385Z,0.00
2019-03-25T03:03:08.378Z,0.00
2019-03-25T03:04:08.374Z,0.00
2019-03-25T03:05:08.366Z,0.00
2019-03-25T03:06:08.360Z,0.00
2019-03-25T03:07:08.356Z,0.00
2019-03-25T03:08:08.344Z,0.00
2019-03-25T03:09:08.335Z,0.00
2019-03-25T03:10:08.339Z,0.00
2019-03-25T03:11:08.346Z,0.00
2019-03-25T03:12:08.340Z,0.00
2019-03-25T03:13:08.333Z,0.00
2019-03-25T03:14:08.335Z,0.00
2019-03-25T03:15:08.335Z,0.00
2019-03-25T03:16:08.326Z,0.00
2019-03-25T03:17:08.323Z,0.00
2019-03-25T03:18:08.316Z,0.00
2019-03-25T03:19:08.316Z,0.00
2019-03-25T03:20:08.305Z,0.00
2019-03-25T03:21:08.296Z,0.00
2019-03-25T03:22:08.291Z,0.00
2019-03-25T03:23:08.284Z,0.00
2019-03-25T03:24:08.276Z,0.00
2019-03-25T03:25:08.272Z,0.00
2019-03-25T03:26:08.280Z,0.00
2019-03-25T03:27:08.259Z,0.00
2019-03-25T03:28:08.251Z,0.00
2019-03-25T03:29:08.247Z,0.00
2019-03-25T03:30:08.242Z,0.00
2019-03-25T03:31:08.236Z,0.00
2019-03-25T03:32:08.227Z,0.00
2019-03-25T03:33:08.224Z,0.00
2019-03-25T03:34:08.218Z,0.00
2019-03-25T03:35:08.217Z,0.00
2019-03-25T03:36:08.209Z,0.00
2019-03-25T03:37:08.199Z,0.00
2019-03-25T03:38:08.198Z,0.00
2019-03-25T03:39:08.201Z,0.00
2019-03-25T03:40:08.182Z,0.00
2019-03-25T03:41:08.171Z,0.00
2019-03-25T03:42:08.164Z,0.00
2019-03-25T03:43:08.159Z,0.00
2019-03-25T03:44:08.165Z,0.00
2019-03-25T03:45:08.147Z,0.00
2019-03-25T03:46:08.138Z,0.00
2019-03-25T03:47:08.134Z,0.00
2019-03-25T03:48:08.129Z,0.00
2019-03-25T03:49:08.121Z,0.00
2019-03-25T03:50:08.111Z,0.00
2019-03-25T03:51:08.108Z,0.00
2019-03-25T03:52:08.101Z,0.00
2019-03-25T03:53:08.119Z,0.00
2019-03-25T03:54:08.097Z,0.00
2019-03-25T03:55:08.095Z,0.00
2019-03-25T03:56:13.591Z,0.00
2019-03-25T03:57:10.072Z,0.00
2019-03-25T03:58:08.065Z,0.00
2019-03-25T03:59:08.057Z,0.00
2019-03-25T04:00:08.051Z,0.00
2019-03-25T04:01:08.076Z,0.00
2019-03-25T04:02:08.066Z,0.00
2019-03-25T04:03:08.063Z,0.00
2019-03-25T04:04:08.063Z,0.00
2019-03-25T04:05:08.055Z,0.00
2019-03-25T04:06:08.049Z,0.00
2019-03-25T04:07:08.038Z,0.00
2019-03-25T04:08:08.037Z,0.00
2019-03-25T04:09:08.037Z,0.00
2019-03-25T04:10:08.018Z,0.00
2019-03-25T04:11:08.009Z,0.00
2019-03-25T04:12:08.002Z,0.00
2019-03-25T04:13:07.998Z,0.00
2019-03-25T04:14:07.996Z,0.00
2019-03-25T04:15:07.998Z,0.00
2019-03-25T04:16:07.976Z,0.00
2019-03-25T04:17:07.973Z,0.00
2019-03-25T04:18:07.963Z,0.00
2019-03-25T04:19:07.961Z,0.00
2019-03-25T04:20:07.952Z,0.00
2019-03-25T04:21:07.943Z,0.00
2019-03-25T04:22:07.940Z,0.00
2019-03-25T04:23:07.929Z,0.00
2019-03-25T04:24:07.920Z,0.00
2019-03-25T04:25:07.913Z,0.00
2019-03-25T04:26:07.909Z,0.00
2019-03-25T04:27:07.917Z,0.00
2019-03-25T04:28:07.909Z,0.00
2019-03-25T04:29:07.924Z,0.00
2019-03-25T04:30:07.906Z,0.00
2019-03-25T04:31:07.902Z,0.00
2019-03-25T04:32:07.893Z,0.00
2019-03-25T04:33:07.883Z,0.00
2019-03-25T04:34:07.897Z,0.00
2019-03-25T04:35:07.868Z,0.00
2019-03-25T04:36:07.860Z,0.00
2019-03-25T04:37:07.856Z,0.00
2019-03-25T04:38:07.852Z,0.00
2019-03-25T04:39:07.843Z,0.00
2019-03-25T04:40:07.837Z,0.00
2019-03-25T04:41:07.830Z,0.00
2019-03-25T04:42:07.826Z,0.00
2019-03-25T04:43:07.821Z,0.00
2019-03-25T04:44:07.809Z,0.00
2019-03-25T04:45:07.808Z,0.00
2019-03-25T04:46:07.797Z,0.00
2019-03-25T04:47:07.790Z,0.00
2019-03-25T04:48:07.784Z,0.00
2019-03-25T04:49:07.780Z,0.00
2019-03-25T04:50:07.779Z,0.00
2019-03-25T04:51:07.764Z,0.00
2019-03-25T04:52:07.755Z,0.00
2019-03-25T04:53:07.750Z,0.00
2019-03-25T04:54:07.742Z,0.00
2019-03-25T04:55:07.735Z,0.00
2019-03-25T04:56:07.745Z,0.00
2019-03-25T04:57:07.725Z,0.00
2019-03-25T04:58:07.718Z,0.00
2019-03-25T04:59:07.711Z,0.00
2019-03-25T05:00:07.704Z,4.00
2019-03-25T05:01:07.698Z,4.00
2019-03-25T05:02:07.694Z,0.00
2019-03-25T05:03:07.688Z,0.00
2019-03-25T05:04:07.690Z,4.00
2019-03-25T05:05:07.691Z,0.00
2019-03-25T05:06:07.670Z,4.00
2019-03-25T05:07:07.663Z,4.00
2019-03-25T05:08:07.659Z,4.00
2019-03-25T05:09:07.656Z,8.00
2019-03-25T05:10:07.647Z,8.00
2019-03-25T05:11:07.642Z,8.00
2019-03-25T05:12:07.636Z,12.00
2019-03-25T05:13:07.630Z,12.00
2019-03-25T05:14:07.623Z,16.00
2019-03-25T05:15:07.615Z,16.00
2019-03-25T05:16:07.610Z,16.00
2019-03-25T05:17:07.607Z,20.00
2019-03-25T05:18:07.598Z,20.00
2019-03-25T05:19:07.592Z,28.00
2019-03-25T05:20:07.585Z,28.00
2019-03-25T05:21:07.629Z,28.00
2019-03-25T05:22:07.569Z,32.00
2019-03-25T05:23:07.565Z,32.00
2019-03-25T05:24:07.555Z,36.00
2019-03-25T05:25:07.548Z,40.00
2019-03-25T05:26:07.544Z,44.00
2019-03-25T05:27:07.537Z,48.00
2019-03-25T05:28:07.536Z,52.00
2019-03-25T05:29:07.525Z,52.00
2019-03-25T05:30:07.523Z,52.00
2019-03-25T05:31:07.512Z,52.00
2019-03-25T05:32:07.507Z,60.00
2019-03-25T05:33:07.499Z,60.00
2019-03-25T05:34:07.491Z,60.00
2019-03-25T05:35:07.491Z,64.00
2019-03-25T05:36:07.481Z,76.00
2019-03-25T05:37:07.476Z,80.00
2019-03-25T05:38:07.469Z,76.00
2019-03-25T05:39:07.461Z,68.00
2019-03-25T05:40:07.461Z,80.00
2019-03-25T05:41:07.452Z,80.00
2019-03-25T05:42:07.445Z,80.00
2019-03-25T05:43:07.442Z,60.00
2019-03-25T05:44:07.434Z,48.00
2019-03-25T05:45:07.447Z,44.00
2019-03-25T05:46:07.420Z,40.00
2019-03-25T05:47:07.412Z,40.00
2019-03-25T05:48:07.407Z,44.00
2019-03-25T05:49:07.403Z,48.00
2019-03-25T05:50:09.124Z,52.00
2019-03-25T05:51:07.388Z,44.00
2019-03-25T05:52:07.383Z,40.00
2019-03-25T05:53:07.373Z,44.00
2019-03-25T05:54:07.367Z,48.00
2019-03-25T05:55:07.359Z,44.00
2019-03-25T05:56:07.354Z,44.00
2019-03-25T05:57:07.348Z,52.00
2019-03-25T05:58:07.342Z,60.00
2019-03-25T05:59:07.332Z,60.00
2019-03-25T06:00:07.328Z,56.00
2019-03-25T06:01:07.324Z,60.00
2019-03-25T06:02:07.315Z,60.00
2019-03-25T06:03:07.307Z,72.00
2019-03-25T06:04:07.301Z,76.00
2019-03-25T06:05:07.295Z,72.00
2019-03-25T06:06:07.287Z,76.00
2019-03-25T06:07:07.284Z,72.00
2019-03-25T06:08:07.278Z,76.00
2019-03-25T06:09:07.273Z,72.00
2019-03-25T06:10:07.267Z,68.00
2019-03-25T06:11:07.260Z,60.00
2019-03-25T06:12:07.258Z,48.00
2019-03-25T06:13:07.248Z,40.00
2019-03-25T06:14:07.241Z,36.00
2019-03-25T06:15:07.234Z,36.00
2019-03-25T06:16:07.238Z,32.00
2019-03-25T06:17:07.223Z,40.00
2019-03-25T06:18:07.215Z,60.00
2019-03-25T06:19:07.209Z,80.00
2019-03-25T06:20:07.206Z,104.00
2019-03-25T06:21:07.199Z,136.00
2019-03-25T06:22:07.191Z,152.00
2019-03-25T06:23:07.186Z,152.00
2019-03-25T06:24:08.602Z,168.00
2019-03-25T06:25:07.173Z,180.00
2019-03-25T06:26:07.166Z,188.00
2019-03-25T06:27:14.099Z,164.00
2019-03-25T06:28:34.950Z,128.00
2019-03-25T06:29:34.948Z,148.00
2019-03-25T06:30:34.940Z,164.00
2019-03-25T06:31:34.933Z,168.00
2019-03-25T06:32:34.926Z,176.00
2019-03-25T06:33:34.919Z,200.00
2019-03-25T06:34:34.915Z,224.00
2019-03-25T06:35:34.912Z,264.00
2019-03-25T06:36:34.902Z,308.00
2019-03-25T06:37:34.897Z,412.00
2019-03-25T06:38:34.887Z,476.00
2019-03-25T06:39:34.882Z,524.00
2019-03-25T06:40:34.875Z,604.00
2019-03-25T06:41:34.870Z,692.00
2019-03-25T06:42:34.884Z,820.00
2019-03-25T06:43:34.879Z,748.00
2019-03-25T06:44:34.872Z,552.00
2019-03-25T06:45:34.868Z,460.00
2019-03-25T06:46:34.860Z,388.00
2019-03-25T06:47:34.854Z,312.00
2019-03-25T06:48:34.848Z,260.00
2019-03-25T06:49:34.842Z,244.00
2019-03-25T06:50:34.833Z,236.00
2019-03-25T06:51:34.828Z,224.00
2019-03-25T06:52:34.819Z,208.00
2019-03-25T06:53:34.816Z,196.00
2019-03-25T06:54:34.807Z,188.00
2019-03-25T06:55:34.799Z,172.00
2019-03-25T06:56:34.791Z,156.00
2019-03-25T06:57:34.787Z,156.00
2019-03-25T06:58:34.777Z,168.00
2019-03-25T06:59:34.772Z,172.00
2019-03-25T07:00:34.810Z,188.00
2019-03-25T07:01:34.754Z,244.00
2019-03-25T07:02:34.752Z,276.00
2019-03-25T07:03:34.742Z,252.00
2019-03-25T07:04:34.735Z,224.00
2019-03-25T07:05:34.740Z,208.00
2019-03-25T07:06:34.724Z,220.00
2019-03-25T07:07:34.717Z,224.00
2019-03-25T07:08:34.711Z,240.00
2019-03-25T07:09:34.905Z,220.00
2019-03-25T07:10:34.698Z,208.00
2019-03-25T07:11:34.691Z,220.00
2019-03-25T07:12:34.683Z,236.00
2019-03-25T07:13:34.678Z,232.00
2019-03-25T07:14:34.670Z,244.00
2019-03-25T07:15:34.663Z,256.00
2019-03-25T07:16:34.656Z,220.00
2019-03-25T07:17:34.672Z,208.00
2019-03-25T07:18:34.662Z,204.00
2019-03-25T07:19:34.655Z,172.00
2019-03-25T07:20:34.651Z,160.00
2019-03-25T07:21:34.665Z,164.00
2019-03-25T07:22:34.663Z,172.00
2019-03-25T07:23:34.655Z,184.00
2019-03-25T07:24:34.647Z,220.00
2019-03-25T07:25:34.642Z,236.00
2019-03-25T07:26:34.638Z,256.00
2019-03-25T07:27:37.004Z,244.00
2019-03-25T07:28:34.625Z,224.00
2019-03-25T07:29:34.619Z,248.00
2019-03-25T07:30:34.611Z,184.00
2019-03-25T07:31:34.603Z,152.00
2019-03-25T07:32:34.598Z,176.00
2019-03-25T07:33:34.590Z,192.00
2019-03-25T07:34:34.579Z,188.00
2019-03-25T07:35:34.576Z,180.00
2019-03-25T07:36:34.567Z,160.00
2019-03-25T07:37:34.609Z,164.00
2019-03-25T07:38:34.553Z,148.00
2019-03-25T07:39:34.546Z,140.00
2019-03-25T07:40:34.540Z,128.00
2019-03-25T07:41:34.534Z,132.00
2019-03-25T07:42:34.525Z,112.00
2019-03-25T07:43:34.520Z,104.00
2019-03-25T07:44:34.515Z,112.00
2019-03-25T07:45:34.509Z,108.00
2019-03-25T07:46:34.499Z,92.00
2019-03-25T07:47:34.493Z,120.00
2019-03-25T07:48:34.488Z,160.00
2019-03-25T07:49:34.479Z,168.00
2019-03-25T07:50:34.474Z,180.00
2019-03-25T07:51:34.467Z,180.00
2019-03-25T07:52:34.461Z,200.00
2019-03-25T07:53:34.453Z,212.00
2019-03-25T07:54:34.454Z,144.00
2019-03-25T07:55:34.446Z,124.00
2019-03-25T07:56:34.435Z,132.00
2019-03-25T07:57:34.450Z,156.00
2019-03-25T07:58:34.444Z,128.00
2019-03-25T07:59:34.432Z,116.00
2019-03-25T08:00:34.415Z,120.00
2019-03-25T08:01:34.437Z,132.00
2019-03-25T08:02:34.401Z,96.00
2019-03-25T08:03:34.391Z,80.00
2019-03-25T08:04:34.393Z,80.00
2019-03-25T08:05:34.399Z,96.00
2019-03-25T08:06:34.378Z,108.00
2019-03-25T08:07:34.377Z,128.00
2019-03-25T08:08:34.355Z,176.00
2019-03-25T08:09:34.356Z,148.00
2019-03-25T08:10:34.369Z,256.00
2019-03-25T08:11:34.362Z,244.00
2019-03-25T08:12:34.335Z,208.00
2019-03-25T08:13:34.319Z,204.00
2019-03-25T08:14:34.313Z,216.00
2019-03-25T08:15:34.320Z,232.00
2019-03-25T08:16:34.302Z,236.00
2019-03-25T08:17:34.294Z,244.00
2019-03-25T08:18:34.287Z,260.00
2019-03-25T08:19:34.290Z,276.00
2019-03-25T08:20:34.275Z,292.00
2019-03-25T08:21:34.272Z,304.00
2019-03-25T08:22:34.263Z,324.00
2019-03-25T08:23:34.258Z,360.00
2019-03-25T08:24:34.255Z,376.00
2019-03-25T08:25:34.245Z,372.00
2019-03-25T08:26:34.236Z,400.00
2019-03-25T08:27:34.234Z,424.00
2019-03-25T08:28:34.224Z,596.00
2019-03-25T08:29:34.216Z,660.00
2019-03-25T08:30:34.213Z,860.00
2019-03-25T08:31:34.204Z,1092.00
2019-03-25T08:32:34.199Z,1328.00
2019-03-25T08:33:34.192Z,1236.00
2019-03-25T08:34:34.185Z,1052.00
2019-03-25T08:35:34.189Z,1152.00
2019-03-25T08:36:34.182Z,1352.00
2019-03-25T08:37:34.174Z,1468.00
2019-03-25T08:38:34.166Z,4124.00
2019-03-25T08:39:34.161Z,2788.00
2019-03-25T08:40:34.155Z,3288.00
2019-03-25T08:41:34.149Z,1628.00
2019-03-25T08:42:34.140Z,920.00
2019-03-25T08:43:34.133Z,872.00
2019-03-25T08:44:34.127Z,1116.00
2019-03-25T08:45:34.122Z,1016.00
2019-03-25T08:46:34.116Z,920.00
2019-03-25T08:47:34.108Z,768.00
2019-03-25T08:48:34.100Z,596.00
2019-03-25T08:49:34.093Z,800.00
2019-03-25T08:50:34.085Z,912.00
2019-03-25T08:51:34.080Z,1168.00
2019-03-25T08:52:34.073Z,1192.00
2019-03-25T08:53:34.063Z,1200.00
2019-03-25T08:54:34.055Z,1456.00
2019-03-25T08:55:34.050Z,1660.00
2019-03-25T08:56:34.044Z,1936.00
2019-03-25T08:57:34.036Z,2188.00
2019-03-25T08:58:34.029Z,2304.00
2019-03-25T08:59:34.172Z,7488.00
2019-03-25T09:00:34.029Z,10200.00
2019-03-25T09:01:34.022Z,7288.00
2019-03-25T09:02:34.015Z,7504.00
2019-03-25T09:03:34.010Z,4712.00
2019-03-25T09:04:34.000Z,4340.00
2019-03-25T09:05:33.995Z,4296.00
2019-03-25T09:06:33.989Z,4292.00
2019-03-25T09:07:33.982Z,5272.00
2019-03-25T09:08:33.975Z,5224.00
2019-03-25T09:09:33.969Z,4432.00
2019-03-25T09:10:33.962Z,3712.00
2019-03-25T09:11:33.957Z,4208.00
2019-03-25T09:12:33.949Z,4096.00
2019-03-25T09:13:33.944Z,4508.00
2019-03-25T09:14:33.937Z,3548.00
2019-03-25T09:15:33.931Z,3616.00
2019-03-25T09:16:33.926Z,4004.00
2019-03-25T09:17:33.920Z,3384.00
2019-03-25T09:18:33.915Z,3904.00
2019-03-25T09:19:33.906Z,4848.00
2019-03-25T09:20:33.902Z,1376.00
2019-03-25T09:21:33.896Z,5260.00
2019-03-25T09:22:33.888Z,1260.00
2019-03-25T09:23:33.882Z,7352.00
2019-03-25T09:24:33.876Z,7744.00
2019-03-25T09:25:33.869Z,6556.00
2019-03-25T09:26:33.865Z,9940.00
2019-03-25T09:27:33.856Z,9648.00
2019-03-25T09:28:33.848Z,3188.00
2019-03-25T09:29:33.841Z,3520.00
2019-03-25T09:30:33.834Z,1864.00
2019-03-25T09:31:36.923Z,4596.00
2019-03-25T09:32:33.824Z,24320.00
2019-03-25T09:33:33.815Z,23232.00
2019-03-25T09:34:33.809Z,24192.00
2019-03-25T09:35:33.802Z,24768.00
2019-03-25T09:36:33.830Z,23840.00
2019-03-25T09:37:33.787Z,13796.00
2019-03-25T09:38:33.782Z,2008.00
2019-03-25T09:39:33.775Z,1868.00
2019-03-25T09:40:33.767Z,1388.00
2019-03-25T09:41:33.759Z,1100.00
2019-03-25T09:42:33.753Z,8324.00
2019-03-25T09:43:33.746Z,8404.00
2019-03-25T09:44:33.741Z,936.00
2019-03-25T09:45:33.733Z,652.00
2019-03-25T09:46:33.729Z,916.00
2019-03-25T09:47:33.722Z,25952.00
2019-03-25T09:48:33.718Z,27520.00
2019-03-25T09:49:33.709Z,6120.00
2019-03-25T09:50:33.705Z,20736.00
2019-03-25T09:51:33.695Z,29888.00
2019-03-25T09:52:38.518Z,1796.00
2019-03-25T09:53:33.683Z,824.00
2019-03-25T09:54:33.701Z,572.00
2019-03-25T09:55:33.692Z,26656.00
2019-03-25T09:56:33.688Z,528.00
2019-03-25T09:57:33.682Z,392.00
2019-03-25T09:58:36.614Z,448.00
2019-03-25T09:59:33.670Z,564.00
2019-03-25T10:00:33.664Z,828.00
2019-03-25T10:01:33.657Z,568.00
2019-03-25T10:02:33.653Z,3360.00
2019-03-25T10:03:33.644Z,11964.00
2019-03-25T10:04:33.636Z,3628.00
2019-03-25T10:05:33.687Z,1544.00
2019-03-25T10:06:33.623Z,1444.00
2019-03-25T10:07:33.619Z,1068.00
2019-03-25T10:08:33.610Z,2020.00
2019-03-25T10:09:33.605Z,2340.00
2019-03-25T10:10:33.599Z,1756.00
2019-03-25T10:11:33.592Z,4640.00
2019-03-25T10:12:33.587Z,2204.00
2019-03-25T10:13:33.591Z,24576.00
2019-03-25T10:14:33.573Z,22464.00
2019-03-25T10:15:33.564Z,21248.00
2019-03-25T10:16:33.560Z,20000.00
2019-03-25T10:17:33.559Z,18080.00
2019-03-25T10:18:33.543Z,16232.00
2019-03-25T10:19:33.538Z,14784.00
2019-03-25T10:20:33.533Z,13508.00
2019-03-25T10:21:33.529Z,12360.00
2019-03-25T10:22:33.519Z,9952.00
2019-03-25T10:23:33.512Z,6120.00
2019-03-25T10:24:33.508Z,3976.00
2019-03-25T10:25:33.500Z,3544.00
2019-03-25T10:26:33.492Z,4948.00
2019-03-25T10:27:33.484Z,2168.00
2019-03-25T10:28:33.510Z,1780.00
2019-03-25T10:29:33.498Z,1452.00
2019-03-25T10:30:33.489Z,1308.00
2019-03-25T10:31:33.490Z,1284.00
2019-03-25T10:32:33.475Z,1424.00
2019-03-25T10:33:33.469Z,2812.00
2019-03-25T10:34:33.471Z,2100.00
2019-03-25T10:35:33.460Z,1424.00
2019-03-25T10:36:33.454Z,1084.00
2019-03-25T10:37:33.447Z,980.00
2019-03-25T10:38:33.439Z,856.00
2019-03-25T10:39:33.434Z,784.00
2019-03-25T10:40:33.425Z,1008.00
2019-03-25T10:41:33.424Z,1032.00
2019-03-25T10:42:33.412Z,1016.00
2019-03-25T10:43:33.407Z,1088.00
2019-03-25T10:44:33.399Z,944.00
2019-03-25T10:45:33.393Z,812.00
2019-03-25T10:46:33.387Z,784.00
2019-03-25T10:47:33.379Z,920.00
2019-03-25T10:48:33.376Z,852.00
2019-03-25T10:49:33.370Z,676.00
2019-03-25T10:50:33.385Z,460.00
2019-03-25T10:51:33.382Z,332.00
2019-03-25T10:52:33.373Z,288.00
2019-03-25T10:53:33.364Z,288.00
2019-03-25T10:54:33.451Z,352.00
2019-03-25T10:55:33.356Z,472.00
2019-03-25T10:56:33.355Z,608.00
2019-03-25T10:57:33.342Z,504.00
2019-03-25T10:58:33.336Z,472.00
2019-03-25T10:59:33.330Z,472.00
2019-03-25T11:00:33.323Z,564.00
2019-03-25T11:01:33.323Z,960.00
2019-03-25T11:02:33.310Z,2280.00
2019-03-25T11:03:33.303Z,2468.00
2019-03-25T11:04:33.298Z,2664.00
2019-03-25T11:05:33.296Z,2228.00
2019-03-25T11:06:33.283Z,1588.00
2019-03-25T11:07:33.363Z,1260.00
2019-03-25T11:08:33.273Z,1920.00
2019-03-25T11:09:33.268Z,2068.00
2019-03-25T11:10:33.258Z,1900.00
2019-03-25T11:11:33.250Z,1464.00
2019-03-25T11:12:33.246Z,1036.00
2019-03-25T11:13:33.234Z,660.00
2019-03-25T11:14:33.230Z,548.00
2019-03-25T11:15:33.224Z,564.00
2019-03-25T11:16:33.219Z,532.00
2019-03-25T11:17:33.214Z,624.00
2019-03-25T11:18:33.206Z,1372.00
2019-03-25T11:19:33.225Z,1504.00
2019-03-25T11:20:33.220Z,1668.00
2019-03-25T11:21:33.208Z,1660.00
2019-03-25T11:22:33.205Z,1724.00
2019-03-25T11:23:33.198Z,2220.00
2019-03-25T11:24:33.187Z,2468.00
2019-03-25T11:25:33.182Z,2544.00
2019-03-25T11:26:33.173Z,1936.00
2019-03-25T11:27:33.167Z,1492.00
2019-03-25T11:28:33.160Z,1628.00
2019-03-25T11:29:33.156Z,1944.00
2019-03-25T11:30:33.151Z,2020.00
2019-03-25T11:31:33.145Z,1604.00
2019-03-25T11:32:33.136Z,1384.00
2019-03-25T11:33:33.131Z,1300.00
2019-03-25T11:34:33.144Z,1332.00
2019-03-25T11:35:33.119Z,1496.00
2019-03-25T11:36:33.114Z,1148.00
2019-03-25T11:37:33.103Z,1092.00
2019-03-25T11:38:33.099Z,920.00
2019-03-25T11:39:33.114Z,688.00
2019-03-25T11:40:33.108Z,644.00
2019-03-25T11:41:33.102Z,824.00
2019-03-25T11:42:33.095Z,1080.00
2019-03-25T11:43:33.090Z,1176.00
2019-03-25T11:44:33.085Z,1136.00
2019-03-25T11:45:33.075Z,1148.00
2019-03-25T11:46:33.068Z,1056.00
2019-03-25T11:47:33.066Z,884.00
2019-03-25T11:48:33.061Z,1052.00
2019-03-25T11:49:33.050Z,1304.00
2019-03-25T11:50:33.044Z,1176.00
2019-03-25T11:51:33.036Z,824.00
2019-03-25T11:52:33.031Z,624.00
2019-03-25T11:53:33.021Z,724.00
2019-03-25T11:54:33.016Z,872.00
2019-03-25T11:55:33.009Z,884.00
2019-03-25T11:56:33.002Z,724.00
2019-03-25T11:57:32.997Z,628.00
2019-03-25T11:58:32.992Z,636.00
2019-03-25T11:59:32.986Z,580.00
2019-03-25T12:00:32.982Z,548.00
2019-03-25T12:01:32.974Z,508.00
2019-03-25T12:02:32.964Z,480.00
2019-03-25T12:03:32.958Z,592.00
2019-03-25T12:04:32.951Z,676.00
2019-03-25T12:05:32.946Z,760.00
2019-03-25T12:06:32.939Z,692.00
2019-03-25T12:07:32.932Z,576.00
2019-03-25T12:08:32.924Z,532.00
2019-03-25T12:09:32.940Z,512.00
2019-03-25T12:10:32.937Z,512.00
2019-03-25T12:11:32.927Z,508.00
2019-03-25T12:12:32.920Z,512.00
2019-03-25T12:13:32.914Z,516.00
2019-03-25T12:14:32.909Z,492.00
2019-03-25T12:15:32.901Z,548.00
2019-03-25T12:16:32.895Z,580.00
2019-03-25T12:17:32.888Z,616.00
2019-03-25T12:18:32.880Z,556.00
2019-03-25T12:19:32.875Z,536.00
2019-03-25T12:20:32.869Z,484.00
2019-03-25T12:21:32.864Z,480.00
2019-03-25T12:22:32.907Z,492.00
2019-03-25T12:23:32.853Z,576.00
2019-03-25T12:24:32.855Z,808.00
2019-03-25T12:25:32.836Z,860.00
2019-03-25T12:26:32.830Z,1156.00
2019-03-25T12:27:32.903Z,1212.00
2019-03-25T12:28:32.843Z,884.00
2019-03-25T12:29:32.843Z,812.00
2019-03-25T12:30:32.829Z,812.00
2019-03-25T12:31:32.824Z,836.00
2019-03-25T12:32:32.816Z,860.00
2019-03-25T12:33:32.810Z,788.00
2019-03-25T12:34:32.986Z,1060.00
2019-03-25T12:35:32.799Z,1200.00
2019-03-25T12:36:32.819Z,1104.00
2019-03-25T12:37:32.805Z,908.00
2019-03-25T12:38:32.798Z,716.00
2019-03-25T12:39:32.791Z,724.00
2019-03-25T12:40:32.784Z,796.00
2019-03-25T12:41:32.775Z,808.00
2019-03-25T12:42:32.771Z,764.00
2019-03-25T12:43:32.763Z,708.00
2019-03-25T12:44:32.755Z,760.00
2019-03-25T12:45:32.751Z,700.00
2019-03-25T12:46:32.743Z,508.00
2019-03-25T12:47:32.737Z,428.00